createdAt,value
2018-07-30T00:00:56.203Z,20.50
2018-07-30T00:03:24.473Z,20.50
2018-07-30T00:05:52.771Z,20.40
2018-07-30T00:08:21.041Z,20.40
2018-07-30T00:10:49.320Z,20.30
2018-07-30T00:13:17.637Z,20.30
2018-07-30T00:15:45.920Z,20.20
2018-07-30T00:18:14.199Z,20.20
2018-07-30T00:20:42.564Z,20.20
2018-07-30T00:23:10.823Z,20.20
2018-07-30T00:25:39.103Z,20.30
2018-07-30T00:28:07.458Z,20.30
2018-07-30T00:30:35.763Z,20.30
2018-07-30T00:35:32.016Z,20.20
2018-07-30T00:40:28.298Z,20.20
2018-07-30T00:42:56.579Z,20.10
2018-07-30T00:45:24.842Z,20.10
2018-07-30T00:47:53.124Z,20.10
2018-07-30T00:50:21.383Z,20.00
2018-07-30T00:52:49.631Z,20.00
2018-07-30T00:55:17.921Z,19.90
2018-07-30T00:57:47.027Z,19.90
2018-07-30T01:00:15.332Z,19.80
2018-07-30T01:02:43.580Z,19.80
2018-07-30T01:05:11.836Z,19.80
2018-07-30T01:07:40.135Z,19.80
2018-07-30T01:10:08.527Z,19.80
2018-07-30T01:12:36.787Z,19.80
2018-07-30T01:15:05.480Z,19.80
2018-07-30T01:17:33.739Z,19.70
2018-07-30T01:20:02.033Z,19.80
2018-07-30T01:22:30.333Z,19.80
2018-07-30T01:24:58.592Z,19.80
2018-07-30T01:27:26.872Z,19.80
2018-07-30T01:32:23.170Z,19.70
2018-07-30T01:34:51.422Z,19.60
2018-07-30T01:37:19.710Z,19.70
2018-07-30T01:39:47.963Z,19.60
2018-07-30T01:44:44.268Z,19.60
2018-07-30T01:47:12.520Z,19.60
2018-07-30T01:49:40.783Z,19.60
2018-07-30T01:52:09.137Z,19.50
2018-07-30T01:54:37.410Z,19.50
2018-07-30T01:57:05.716Z,19.50
2018-07-30T01:59:34.000Z,19.30
2018-07-30T02:02:02.292Z,19.30
2018-07-30T02:04:30.564Z,19.30
2018-07-30T02:06:58.876Z,19.20
2018-07-30T02:09:27.126Z,19.20
2018-07-30T02:11:55.410Z,19.20
2018-07-30T02:14:23.662Z,19.10
2018-07-30T02:16:51.932Z,19.20
2018-07-30T02:19:20.226Z,19.20
2018-07-30T02:21:48.508Z,19.10
2018-07-30T02:24:17.028Z,19.10
2018-07-30T02:26:45.298Z,19.00
2018-07-30T02:29:13.566Z,18.90
2018-07-30T02:34:10.235Z,18.80
2018-07-30T02:36:38.542Z,18.70
2018-07-30T02:39:09.687Z,18.70
2018-07-30T02:41:37.980Z,18.70
2018-07-30T02:44:06.353Z,18.60
2018-07-30T02:46:34.645Z,18.60
2018-07-30T02:49:02.897Z,18.60
2018-07-30T02:51:31.202Z,18.50
2018-07-30T02:53:59.635Z,18.50
2018-07-30T02:56:27.920Z,18.50
2018-07-30T02:58:56.219Z,18.50
2018-07-30T03:01:24.484Z,18.50
2018-07-30T03:03:52.789Z,18.50
2018-07-30T03:06:21.054Z,18.50
2018-07-30T03:08:49.303Z,18.50
2018-07-30T03:11:17.589Z,18.50
2018-07-30T03:16:14.131Z,18.40
2018-07-30T03:18:42.475Z,18.50
2018-07-30T03:21:10.735Z,18.40
2018-07-30T03:23:38.999Z,18.40
2018-07-30T03:28:35.355Z,18.40
2018-07-30T03:31:03.625Z,18.40
2018-07-30T03:33:31.923Z,18.30
2018-07-30T03:36:00.185Z,18.40
2018-07-30T03:38:28.439Z,18.40
2018-07-30T03:40:56.723Z,18.40
2018-07-30T03:43:25.105Z,18.40
2018-07-30T03:45:53.380Z,18.40
2018-07-30T03:48:21.645Z,18.40
2018-07-30T03:50:49.927Z,18.40
2018-07-30T03:53:18.237Z,18.40
2018-07-30T03:55:46.519Z,18.30
2018-07-30T03:58:14.848Z,18.30
2018-07-30T04:03:11.147Z,18.30
2018-07-30T04:05:39.448Z,18.30
2018-07-30T04:08:07.710Z,18.30
2018-07-30T04:10:36.012Z,18.20
2018-07-30T04:13:04.400Z,18.30
2018-07-30T04:15:32.731Z,18.30
2018-07-30T04:20:29.087Z,18.30
2018-07-30T04:22:57.395Z,18.30
2018-07-30T04:25:25.679Z,18.30
2018-07-30T04:27:53.965Z,18.30
2018-07-30T04:30:22.232Z,18.30
2018-07-30T04:32:50.530Z,18.30
2018-07-30T04:35:18.815Z,18.40
2018-07-30T04:37:47.081Z,18.40
2018-07-30T04:40:15.375Z,18.40
2018-07-30T04:42:43.667Z,18.50
2018-07-30T04:45:11.939Z,18.50
2018-07-30T04:47:40.239Z,18.50
2018-07-30T04:50:08.531Z,18.50
2018-07-30T04:52:36.765Z,18.50
2018-07-30T04:55:05.095Z,18.50
2018-07-30T04:57:33.338Z,18.50
2018-07-30T05:00:01.607Z,18.50
2018-07-30T05:04:57.872Z,18.50
2018-07-30T05:07:26.137Z,18.60
2018-07-30T05:09:54.419Z,18.60
2018-07-30T05:14:50.694Z,18.60
2018-07-30T05:17:18.961Z,18.60
2018-07-30T05:22:15.236Z,18.80
2018-07-30T05:24:43.520Z,18.90
2018-07-30T05:27:11.845Z,19.00
2018-07-30T05:29:40.128Z,19.10
2018-07-30T05:32:08.408Z,19.30
2018-07-30T05:34:36.672Z,19.40
2018-07-30T05:37:04.952Z,19.50
2018-07-30T05:39:33.229Z,19.60
2018-07-30T05:42:01.538Z,19.70
2018-07-30T05:44:29.808Z,19.70
2018-07-30T05:46:58.104Z,19.80
2018-07-30T05:49:26.380Z,19.90
2018-07-30T05:54:22.668Z,20.10
2018-07-30T05:56:50.952Z,20.20
2018-07-30T05:59:19.271Z,20.20
2018-07-30T06:01:47.542Z,20.10
2018-07-30T06:04:15.904Z,20.10
2018-07-30T06:06:44.198Z,20.20
2018-07-30T06:11:40.828Z,20.30
2018-07-30T06:14:09.086Z,20.30
2018-07-30T06:16:37.360Z,20.40
2018-07-30T06:19:05.652Z,20.40
2018-07-30T06:21:33.972Z,20.50
2018-07-30T06:24:02.257Z,20.60
2018-07-30T06:26:30.608Z,20.60
2018-07-30T06:28:58.798Z,20.70
2018-07-30T06:31:27.075Z,20.80
2018-07-30T06:33:55.348Z,20.90
2018-07-30T06:36:23.642Z,21.00
2018-07-30T06:38:51.898Z,21.10
2018-07-30T06:41:20.232Z,21.10
2018-07-30T06:43:48.520Z,21.30
2018-07-30T06:46:16.810Z,21.40
2018-07-30T06:48:45.065Z,21.60
2018-07-30T06:51:13.349Z,21.80
2018-07-30T06:53:41.660Z,22.00
2018-07-30T06:56:09.927Z,22.30
2018-07-30T06:58:38.174Z,22.60
2018-07-30T07:01:06.469Z,22.80
2018-07-30T07:03:34.768Z,23.00
2018-07-30T07:06:03.050Z,23.20
2018-07-30T07:08:31.327Z,23.40
2018-07-30T07:10:59.728Z,23.60
2018-07-30T07:13:27.927Z,23.70
2018-07-30T07:18:24.259Z,24.00
2018-07-30T07:20:52.511Z,24.10
2018-07-30T07:23:20.798Z,24.10
2018-07-30T07:25:49.082Z,24.10
2018-07-30T07:28:17.369Z,24.10
2018-07-30T07:30:45.678Z,24.20
2018-07-30T07:33:13.975Z,24.20
2018-07-30T07:35:42.285Z,24.20
2018-07-30T07:38:10.569Z,24.30
2018-07-30T07:40:38.885Z,24.40
2018-07-30T07:43:07.206Z,24.50
2018-07-30T07:45:35.489Z,24.60
2018-07-30T07:48:03.819Z,24.80
2018-07-30T07:50:32.171Z,24.90
2018-07-30T07:53:00.393Z,25.00
2018-07-30T07:55:28.679Z,25.10
2018-07-30T07:57:56.985Z,25.20
2018-07-30T08:00:25.296Z,25.40
2018-07-30T08:02:53.582Z,25.40
2018-07-30T08:05:21.871Z,25.60
2018-07-30T08:07:50.169Z,25.70
2018-07-30T08:10:18.469Z,25.70
2018-07-30T08:12:46.759Z,25.80
2018-07-30T08:15:15.053Z,25.90
2018-07-30T08:17:43.331Z,26.00
2018-07-30T08:20:11.649Z,26.10
2018-07-30T08:25:10.138Z,26.50
2018-07-30T08:27:38.421Z,26.60
2018-07-30T08:30:07.549Z,26.70
2018-07-30T08:35:04.773Z,27.00
2018-07-30T08:37:33.396Z,27.10
2018-07-30T08:40:01.716Z,27.30
2018-07-30T08:42:30.081Z,27.40
2018-07-30T08:47:26.474Z,27.60
2018-07-30T08:49:54.753Z,27.70
2018-07-30T08:52:23.049Z,27.80
2018-07-30T08:54:51.340Z,27.90
2018-07-30T08:57:19.755Z,27.90
2018-07-30T08:59:48.002Z,27.80
2018-07-30T09:02:16.283Z,27.80
2018-07-30T09:04:44.566Z,27.60
2018-07-30T09:07:12.848Z,27.70
2018-07-30T09:09:41.157Z,27.70
2018-07-30T09:12:09.495Z,27.90
2018-07-30T09:14:37.788Z,28.00
2018-07-30T09:17:06.102Z,28.10
2018-07-30T09:19:34.421Z,28.10
2018-07-30T09:24:30.724Z,28.20
2018-07-30T09:26:59.024Z,28.30
2018-07-30T09:29:27.340Z,28.40
2018-07-30T09:34:23.657Z,28.50
2018-07-30T09:36:51.930Z,28.50
2018-07-30T09:39:20.320Z,28.60
2018-07-30T09:41:48.534Z,28.70
2018-07-30T09:44:16.803Z,28.70
2018-07-30T09:46:45.089Z,28.80
2018-07-30T09:49:13.393Z,28.80
2018-07-30T09:51:41.700Z,28.80
2018-07-30T09:54:10.005Z,28.70
2018-07-30T09:56:38.317Z,28.80
2018-07-30T09:59:06.629Z,28.90
2018-07-30T10:04:02.929Z,29.10
2018-07-30T10:06:31.223Z,29.30
2018-07-30T10:08:59.579Z,29.40
2018-07-30T10:11:27.941Z,29.50
2018-07-30T10:16:24.226Z,29.60
2018-07-30T10:18:52.516Z,29.60
2018-07-30T10:21:20.834Z,29.70
2018-07-30T10:23:49.182Z,29.80
2018-07-30T10:26:17.408Z,29.80
2018-07-30T10:28:45.663Z,29.70
2018-07-30T10:31:13.957Z,29.80
2018-07-30T10:33:42.316Z,29.70
2018-07-30T10:36:10.580Z,29.70
2018-07-30T10:38:38.867Z,29.70
2018-07-30T10:41:07.151Z,29.80
2018-07-30T10:43:35.443Z,29.90
2018-07-30T10:46:03.820Z,29.90
2018-07-30T10:48:32.129Z,29.80
2018-07-30T10:51:00.440Z,29.90
2018-07-30T10:53:28.726Z,29.90
2018-07-30T10:55:56.987Z,29.90
2018-07-30T10:58:25.286Z,30.00
2018-07-30T11:00:53.633Z,30.00
2018-07-30T11:03:22.249Z,30.00
2018-07-30T11:05:50.516Z,30.10
2018-07-30T11:08:18.832Z,30.20
2018-07-30T11:10:47.127Z,30.20
2018-07-30T11:13:15.388Z,30.30
2018-07-30T11:15:43.693Z,30.20
2018-07-30T11:20:39.980Z,30.40
2018-07-30T11:23:08.266Z,30.50
2018-07-30T11:25:36.545Z,30.40
2018-07-30T11:28:05.010Z,30.50
2018-07-30T11:30:33.279Z,30.40
2018-07-30T11:35:29.567Z,30.50
2018-07-30T11:37:57.866Z,30.50
2018-07-30T11:40:26.171Z,30.60
2018-07-30T11:42:54.527Z,30.80
2018-07-30T11:45:22.772Z,31.00
2018-07-30T11:50:19.090Z,31.00
2018-07-30T11:52:47.388Z,31.00
2018-07-30T11:55:15.677Z,30.90
2018-07-30T11:57:43.944Z,31.00
2018-07-30T12:00:12.235Z,31.10
2018-07-30T12:02:40.491Z,31.20
2018-07-30T12:05:08.824Z,31.20
2018-07-30T12:07:37.100Z,31.30
2018-07-30T12:12:33.448Z,31.40
2018-07-30T12:15:01.744Z,31.40
2018-07-30T12:19:58.132Z,31.70
2018-07-30T12:22:26.408Z,31.70
2018-07-30T12:24:54.848Z,31.70
2018-07-30T12:27:23.179Z,31.70
2018-07-30T12:29:51.432Z,31.80
2018-07-30T12:34:47.752Z,31.70
2018-07-30T12:37:16.045Z,31.70
2018-07-30T12:39:44.353Z,31.70
2018-07-30T12:42:12.676Z,31.70
2018-07-30T12:44:40.945Z,31.70
2018-07-30T12:47:09.228Z,31.60
2018-07-30T12:49:37.480Z,31.60
2018-07-30T12:54:33.798Z,31.40
2018-07-30T12:57:02.081Z,31.60
2018-07-30T12:59:30.356Z,31.70
2018-07-30T13:01:58.632Z,31.70
2018-07-30T13:04:26.924Z,31.80
2018-07-30T13:06:55.222Z,31.90
2018-07-30T13:09:23.496Z,31.90
2018-07-30T13:11:51.776Z,31.90
2018-07-30T13:14:20.040Z,31.80
2018-07-30T13:16:48.366Z,31.70
2018-07-30T13:19:16.652Z,31.60
2018-07-30T13:21:44.972Z,31.40
2018-07-30T13:24:13.268Z,31.40
2018-07-30T13:26:41.640Z,31.20
2018-07-30T13:29:10.340Z,31.10
2018-07-30T13:31:38.640Z,31.00
2018-07-30T13:34:06.962Z,30.90
2018-07-30T13:36:35.239Z,31.00
2018-07-30T13:39:04.356Z,31.10
2018-07-30T13:41:32.652Z,31.30
2018-07-30T13:44:00.935Z,31.50
2018-07-30T13:48:57.292Z,31.60
2018-07-30T13:51:25.576Z,31.70
2018-07-30T13:53:53.888Z,31.80
2018-07-30T13:56:22.186Z,31.80
2018-07-30T13:58:50.510Z,31.70
2018-07-30T14:01:18.838Z,31.80
2018-07-30T14:03:47.141Z,31.80
2018-07-30T14:06:15.563Z,31.70
2018-07-30T14:08:43.904Z,31.70
2018-07-30T14:11:12.216Z,31.70
2018-07-30T14:13:40.532Z,31.70
2018-07-30T14:16:08.841Z,31.70
2018-07-30T14:18:37.283Z,31.70
2018-07-30T14:21:05.592Z,31.70
2018-07-30T14:23:33.994Z,31.60
2018-07-30T14:26:02.404Z,31.70
2018-07-30T14:28:30.709Z,31.70
2018-07-30T14:30:59.047Z,31.70
2018-07-30T14:33:27.328Z,31.60
2018-07-30T14:35:55.614Z,31.60
2018-07-30T14:38:23.949Z,31.60
2018-07-30T14:40:52.227Z,31.70
2018-07-30T14:43:20.548Z,31.70
2018-07-30T14:45:48.837Z,31.70
2018-07-30T14:48:17.166Z,31.90
2018-07-30T14:50:45.503Z,32.00
2018-07-30T14:53:13.865Z,32.10
2018-07-30T14:58:10.216Z,32.30
2018-07-30T15:00:38.512Z,32.30
2018-07-30T15:05:34.857Z,32.30
2018-07-30T15:10:31.147Z,32.20
2018-07-30T15:12:59.441Z,32.20
2018-07-30T15:15:27.710Z,32.10
2018-07-30T15:17:55.988Z,32.10
2018-07-30T15:20:24.310Z,32.10
2018-07-30T15:22:52.720Z,32.00
2018-07-30T15:25:20.995Z,31.90
2018-07-30T15:27:49.335Z,31.90
2018-07-30T15:30:17.608Z,31.90
2018-07-30T15:32:45.907Z,31.90
2018-07-30T15:35:14.199Z,31.90
2018-07-30T15:37:42.501Z,31.90
2018-07-30T15:40:10.813Z,31.90
2018-07-30T15:42:39.090Z,31.90
2018-07-30T15:47:35.388Z,31.90
2018-07-30T15:50:03.739Z,31.90
2018-07-30T15:52:32.005Z,31.80
2018-07-30T15:55:00.372Z,31.80
2018-07-30T15:57:28.634Z,31.80
2018-07-30T15:59:56.893Z,31.80
2018-07-30T16:02:25.168Z,31.80
2018-07-30T16:04:53.460Z,31.70
2018-07-30T16:07:21.757Z,31.70
2018-07-30T16:09:50.041Z,31.70
2018-07-30T16:12:18.502Z,31.70
2018-07-30T16:14:46.728Z,31.60
2018-07-30T16:17:15.068Z,31.60
2018-07-30T16:19:43.371Z,31.60
2018-07-30T16:22:11.657Z,31.60
2018-07-30T16:24:39.946Z,31.60
2018-07-30T16:27:08.253Z,31.60
2018-07-30T16:29:36.606Z,31.50
2018-07-30T16:32:04.917Z,31.50
2018-07-30T16:34:33.263Z,31.40
2018-07-30T16:37:01.542Z,31.40
2018-07-30T16:39:29.988Z,31.30
2018-07-30T16:41:58.327Z,31.20
2018-07-30T16:44:26.600Z,31.10
2018-07-30T16:46:54.971Z,31.20
2018-07-30T16:49:23.208Z,31.20
2018-07-30T16:51:51.545Z,31.40
2018-07-30T16:54:19.829Z,31.60
2018-07-30T16:56:48.125Z,31.70
2018-07-30T17:01:44.426Z,32.00
2018-07-30T17:06:40.716Z,32.30
2018-07-30T17:09:10.691Z,32.40
2018-07-30T17:11:39.035Z,32.40
2018-07-30T17:16:35.535Z,32.30
2018-07-30T17:19:04.389Z,32.50
2018-07-30T17:21:32.694Z,32.70
2018-07-30T17:24:01.033Z,33.00
2018-07-30T17:26:30.815Z,33.20
2018-07-30T17:28:59.100Z,33.50
2018-07-30T17:31:27.433Z,33.90
2018-07-30T17:33:55.708Z,34.30
2018-07-30T17:36:24.004Z,34.70
2018-07-30T17:38:52.344Z,34.90
2018-07-30T17:41:20.642Z,35.00
2018-07-30T17:46:16.977Z,35.30
2018-07-30T17:48:45.256Z,35.30
2018-07-30T17:51:13.532Z,35.30
2018-07-30T17:53:41.837Z,35.40
2018-07-30T17:58:38.205Z,35.10
2018-07-30T18:03:34.525Z,34.20
2018-07-30T18:06:02.834Z,33.80
2018-07-30T18:08:31.122Z,33.30
2018-07-30T18:10:59.477Z,33.00
2018-07-30T18:13:27.737Z,32.70
2018-07-30T18:15:56.056Z,32.40
2018-07-30T18:18:24.341Z,32.20
2018-07-30T18:20:52.641Z,32.00
2018-07-30T18:25:48.993Z,31.60
2018-07-30T18:28:17.256Z,31.40
2018-07-30T18:30:45.533Z,31.20
2018-07-30T18:33:13.857Z,31.00
2018-07-30T18:35:42.215Z,30.80
2018-07-30T18:38:10.523Z,30.60
2018-07-30T18:40:38.865Z,30.50
2018-07-30T18:43:07.152Z,30.30
2018-07-30T18:45:35.475Z,30.10
2018-07-30T18:48:03.830Z,29.90
2018-07-30T18:50:32.122Z,29.80
2018-07-30T18:53:00.489Z,29.60
2018-07-30T18:55:28.769Z,29.50
2018-07-30T18:57:57.061Z,29.30
2018-07-30T19:00:25.392Z,29.10
2018-07-30T19:02:53.704Z,28.90
2018-07-30T19:05:22.006Z,28.70
2018-07-30T19:07:50.655Z,28.50
2018-07-30T19:10:18.941Z,28.30
2018-07-30T19:12:47.311Z,28.10
2018-07-30T19:15:15.618Z,27.90
2018-07-30T19:17:43.942Z,27.70
2018-07-30T19:20:12.215Z,27.60
2018-07-30T19:22:40.518Z,27.40
2018-07-30T19:25:08.832Z,27.30
2018-07-30T19:27:37.104Z,27.20
2018-07-30T19:30:06.057Z,27.00
2018-07-30T19:32:34.382Z,26.90
2018-07-30T19:35:02.676Z,26.80
2018-07-30T19:37:31.016Z,26.70
2018-07-30T19:39:59.292Z,26.60
2018-07-30T19:42:27.633Z,26.60
2018-07-30T19:44:55.960Z,26.50
2018-07-30T19:47:24.309Z,26.40
2018-07-30T19:49:52.657Z,26.40
2018-07-30T19:52:20.989Z,26.30
2018-07-30T19:54:49.331Z,26.30
2018-07-30T19:57:17.637Z,26.20
2018-07-30T19:59:45.960Z,26.10
2018-07-30T20:02:14.296Z,26.10
2018-07-30T20:04:42.608Z,26.00
2018-07-30T20:07:10.969Z,25.90
2018-07-30T20:09:39.300Z,25.90
2018-07-30T20:12:07.606Z,25.80
2018-07-30T20:17:04.269Z,25.70
2018-07-30T20:19:32.616Z,25.60
2018-07-30T20:22:00.990Z,25.50
2018-07-30T20:24:29.397Z,25.40
2018-07-30T20:26:57.793Z,25.50
2018-07-30T20:29:26.281Z,25.40
2018-07-30T20:31:54.604Z,25.40
2018-07-30T20:34:23.424Z,25.40
2018-07-30T20:36:51.774Z,25.30
2018-07-30T20:39:20.126Z,25.30
2018-07-30T20:41:48.468Z,25.20
2018-07-30T20:44:16.838Z,25.20
2018-07-30T20:46:45.172Z,25.10
2018-07-30T20:49:13.485Z,25.10
2018-07-30T20:51:41.820Z,25.00
2018-07-30T20:54:10.124Z,25.00
2018-07-30T20:56:38.420Z,24.90
2018-07-30T20:59:06.757Z,24.80
2018-07-30T21:01:35.074Z,24.80
2018-07-30T21:04:03.386Z,24.70
2018-07-30T21:06:31.703Z,24.60
2018-07-30T21:09:00.007Z,24.60
2018-07-30T21:11:28.380Z,24.50
2018-07-30T21:13:56.642Z,24.50
2018-07-30T21:16:24.950Z,24.40
2018-07-30T21:18:53.272Z,24.40
2018-07-30T21:21:21.624Z,24.30
2018-07-30T21:23:49.856Z,24.20
2018-07-30T21:26:18.216Z,24.20
2018-07-30T21:31:14.539Z,24.10
2018-07-30T21:33:42.834Z,24.10
2018-07-30T21:36:11.215Z,24.00
2018-07-30T21:38:39.496Z,24.00
2018-07-30T21:41:07.801Z,23.90
2018-07-30T21:43:36.432Z,23.90
2018-07-30T21:46:04.882Z,23.80
2018-07-30T21:53:29.520Z,23.70
2018-07-30T21:55:57.873Z,23.60
2018-07-30T21:58:26.156Z,23.60
2018-07-30T22:00:55.461Z,23.50
2018-07-30T22:03:23.784Z,23.60
2018-07-30T22:08:25.947Z,23.50
2018-07-30T22:10:54.262Z,23.50
2018-07-30T22:15:50.596Z,23.50
2018-07-30T22:18:19.289Z,23.50
2018-07-30T22:20:47.645Z,23.40
2018-07-30T22:23:16.037Z,23.30
2018-07-30T22:25:44.337Z,23.20
2018-07-30T22:28:12.616Z,23.20
2018-07-30T22:30:40.956Z,23.10
2018-07-30T22:33:09.248Z,23.10
2018-07-30T22:35:37.541Z,23.10
2018-07-30T22:38:05.979Z,23.10
2018-07-30T22:45:30.501Z,23.10
2018-07-30T22:47:58.824Z,23.10
2018-07-30T22:50:27.116Z,23.10
2018-07-30T22:52:55.401Z,23.10
2018-07-30T22:55:23.697Z,23.10
2018-07-30T22:57:52.000Z,23.00
2018-07-30T23:00:20.297Z,23.00
2018-07-30T23:02:48.600Z,22.90
2018-07-30T23:05:16.880Z,22.90
2018-07-30T23:07:45.446Z,22.90
2018-07-30T23:10:13.720Z,22.90
2018-07-30T23:12:42.044Z,22.80
2018-07-30T23:15:10.708Z,22.80
2018-07-30T23:20:07.154Z,22.70
2018-07-30T23:22:35.432Z,22.70
2018-07-30T23:25:03.784Z,22.60
2018-07-30T23:27:32.072Z,22.60
2018-07-30T23:30:00.340Z,22.50
2018-07-30T23:32:28.646Z,22.50
2018-07-30T23:34:56.929Z,22.40
2018-07-30T23:37:25.470Z,22.40
2018-07-30T23:39:53.532Z,22.40
2018-07-30T23:42:21.812Z,22.30
2018-07-30T23:44:50.084Z,22.30
2018-07-30T23:47:18.386Z,22.30
2018-07-30T23:52:14.700Z,22.20
2018-07-30T23:54:42.998Z,22.10
2018-07-30T23:57:11.280Z,22.10
2018-07-30T23:59:39.545Z,22.10
